sensor_id;sensor_type;location;lat;lon;timestamp;temperature;humidity
1702;DHT22;848;48.354;10.064;2022-10-16T00:01:34;14.70;99.90
1702;DHT22;848;48.354;10.064;2022-10-16T00:04:02;14.70;99.90
1702;DHT22;848;48.354;10.064;2022-10-16T00:06:30;14.70;99.90
1702;DHT22;848;48.354;10.064;2022-10-16T00:08:57;14.70;99.90
1702;DHT22;848;48.354;10.064;2022-10-16T00:11:26;14.70;99.90
1702;DHT22;848;48.354;10.064;2022-10-16T00:13:57;14.70;99.90
1702;DHT22;848;48.354;10.064;2022-10-16T00:16:25;14.70;99.90
1702;DHT22;848;48.354;10.064;2022-10-16T00:18:52;14.70;99.90
1702;DHT22;848;48.354;10.064;2022-10-16T00:21:22;14.70;99.90
1702;DHT22;848;48.354;10.064;2022-10-16T00:23:51;14.70;99.90
1702;DHT22;848;48.354;10.064;2022-10-16T00:26:18;14.60;99.90
1702;DHT22;848;48.354;10.064;2022-10-16T00:28:46;14.60;99.90
1702;DHT22;848;48.354;10.064;2022-10-16T00:31:16;14.60;99.90
1702;DHT22;848;48.354;10.064;2022-10-16T00:33:43;14.60;99.90
1702;DHT22;848;48.354;10.064;2022-10-16T00:36:12;14.50;99.90
1702;DHT22;848;48.354;10.064;2022-10-16T00:38:40;14.50;99.90
1702;DHT22;848;48.354;10.064;2022-10-16T00:41:10;14.50;99.90
1702;DHT22;848;48.354;10.064;2022-10-16T00:43:40;14.50;99.90
1702;DHT22;848;48.354;10.064;2022-10-16T00:46:15;14.50;99.90
1702;DHT22;848;48.354;10.064;2022-10-16T00:48:47;14.40;99.90
1702;DHT22;848;48.354;10.064;2022-10-16T00:51:15;14.40;99.90
1702;DHT22;848;48.354;10.064;2022-10-16T00:53:44;14.30;99.90
1702;DHT22;848;48.354;10.064;2022-10-16T00:56:11;14.30;99.90
1702;DHT22;848;48.354;10.064;2022-10-16T00:58:38;14.30;99.90
1702;DHT22;848;48.354;10.064;2022-10-16T01:01:05;14.30;99.90
1702;DHT22;848;48.354;10.064;2022-10-16T01:03:36;14.30;99.90
1702;DHT22;848;48.354;10.064;2022-10-16T01:06:21;14.30;99.90
1702;DHT22;848;48.354;10.064;2022-10-16T01:09:02;14.20;99.90
1702;DHT22;848;48.354;10.064;2022-10-16T01:11:35;14.20;99.90
1702;DHT22;848;48.354;10.064;2022-10-16T01:14:11;14.20;99.90
1702;DHT22;848;48.354;10.064;2022-10-16T01:16:44;14.10;99.90
1702;DHT22;848;48.354;10.064;2022-10-16T01:19:20;14.10;99.90
1702;DHT22;848;48.354;10.064;2022-10-16T01:21:48;14.00;99.90
1702;DHT22;848;48.354;10.064;2022-10-16T01:24:26;14.00;99.90
1702;DHT22;848;48.354;10.064;2022-10-16T01:27:09;13.90;99.90
1702;DHT22;848;48.354;10.064;2022-10-16T01:29:42;13.90;99.90
1702;DHT22;848;48.354;10.064;2022-10-16T01:32:29;13.90;99.90
1702;DHT22;848;48.354;10.064;2022-10-16T01:35:01;13.90;99.90
1702;DHT22;848;48.354;10.064;2022-10-16T01:37:34;13.90;99.90
1702;DHT22;848;48.354;10.064;2022-10-16T01:40:04;13.90;99.90
1702;DHT22;848;48.354;10.064;2022-10-16T01:42:35;14.00;99.90
1702;DHT22;848;48.354;10.064;2022-10-16T01:45:05;14.00;99.90
1702;DHT22;848;48.354;10.064;2022-10-16T01:47:34;14.00;99.90
1702;DHT22;848;48.354;10.064;2022-10-16T01:50:10;14.00;99.90
1702;DHT22;848;48.354;10.064;2022-10-16T01:52:41;14.00;99.90
1702;DHT22;848;48.354;10.064;2022-10-16T01:55:11;14.00;99.90
1702;DHT22;848;48.354;10.064;2022-10-16T01:57:44;14.00;99.90
1702;DHT22;848;48.354;10.064;2022-10-16T02:00:13;14.00;99.90
1702;DHT22;848;48.354;10.064;2022-10-16T02:02:44;14.00;99.90
1702;DHT22;848;48.354;10.064;2022-10-16T02:05:20;14.00;99.90
1702;DHT22;848;48.354;10.064;2022-10-16T02:07:50;14.00;99.90
1702;DHT22;848;48.354;10.064;2022-10-16T02:10:17;13.90;99.90
1702;DHT22;848;48.354;10.064;2022-10-16T02:12:50;14.00;99.90
1702;DHT22;848;48.354;10.064;2022-10-16T02:15:20;14.00;99.90
1702;DHT22;848;48.354;10.064;2022-10-16T02:17:47;14.00;99.90
1702;DHT22;848;48.354;10.064;2022-10-16T02:20:14;14.00;99.90
1702;DHT22;848;48.354;10.064;2022-10-16T02:22:45;13.90;99.90
1702;DHT22;848;48.354;10.064;2022-10-16T02:25:18;14.00;99.90
1702;DHT22;848;48.354;10.064;2022-10-16T02:27:52;14.00;99.90
1702;DHT22;848;48.354;10.064;2022-10-16T02:30:25;14.00;99.90
1702;DHT22;848;48.354;10.064;2022-10-16T02:32:53;14.00;99.90
1702;DHT22;848;48.354;10.064;2022-10-16T02:35:23;14.00;99.90
1702;DHT22;848;48.354;10.064;2022-10-16T02:37:51;14.00;99.90
1702;DHT22;848;48.354;10.064;2022-10-16T02:40:19;14.00;99.90
1702;DHT22;848;48.354;10.064;2022-10-16T02:42:50;14.00;99.90
1702;DHT22;848;48.354;10.064;2022-10-16T02:45:18;14.00;99.90
1702;DHT22;848;48.354;10.064;2022-10-16T02:47:45;14.00;99.90
1702;DHT22;848;48.354;10.064;2022-10-16T02:50:12;14.00;99.90
1702;DHT22;848;48.354;10.064;2022-10-16T02:52:39;14.00;99.90
1702;DHT22;848;48.354;10.064;2022-10-16T02:55:07;14.00;99.90
1702;DHT22;848;48.354;10.064;2022-10-16T02:57:34;14.00;99.90
1702;DHT22;848;48.354;10.064;2022-10-16T03:00:04;14.00;99.90
1702;DHT22;848;48.354;10.064;2022-10-16T03:02:31;13.90;99.90
1702;DHT22;848;48.354;10.064;2022-10-16T03:04:58;14.00;99.90
1702;DHT22;848;48.354;10.064;2022-10-16T03:07:25;14.00;99.90
1702;DHT22;848;48.354;10.064;2022-10-16T03:09:52;14.00;99.90
1702;DHT22;848;48.354;10.064;2022-10-16T03:12:20;14.00;99.90
1702;DHT22;848;48.354;10.064;2022-10-16T03:14:47;14.00;99.90
1702;DHT22;848;48.354;10.064;2022-10-16T03:17:15;14.00;99.90
1702;DHT22;848;48.354;10.064;2022-10-16T03:19:43;13.90;99.90
1702;DHT22;848;48.354;10.064;2022-10-16T03:22:09;14.00;99.90
1702;DHT22;848;48.354;10.064;2022-10-16T03:24:36;14.00;99.90
1702;DHT22;848;48.354;10.064;2022-10-16T03:27:03;14.00;99.90
1702;DHT22;848;48.354;10.064;2022-10-16T03:29:30;14.00;99.90
1702;DHT22;848;48.354;10.064;2022-10-16T03:31:58;14.00;99.90
1702;DHT22;848;48.354;10.064;2022-10-16T03:34:27;14.00;99.90
1702;DHT22;848;48.354;10.064;2022-10-16T03:36:56;14.00;99.90
1702;DHT22;848;48.354;10.064;2022-10-16T03:39:23;13.90;99.90
1702;DHT22;848;48.354;10.064;2022-10-16T03:41:50;13.90;99.90
1702;DHT22;848;48.354;10.064;2022-10-16T03:44:17;13.90;99.90
1702;DHT22;848;48.354;10.064;2022-10-16T03:46:44;14.00;99.90
1702;DHT22;848;48.354;10.064;2022-10-16T03:49:10;13.90;99.90
1702;DHT22;848;48.354;10.064;2022-10-16T03:51:39;13.80;99.90
1702;DHT22;848;48.354;10.064;2022-10-16T03:54:06;13.80;99.90
1702;DHT22;848;48.354;10.064;2022-10-16T03:56:32;13.80;99.90
1702;DHT22;848;48.354;10.064;2022-10-16T03:58:59;13.90;99.90
1702;DHT22;848;48.354;10.064;2022-10-16T04:01:26;13.90;99.90
1702;DHT22;848;48.354;10.064;2022-10-16T04:03:56;13.90;99.90
1702;DHT22;848;48.354;10.064;2022-10-16T04:06:23;13.80;99.90
1702;DHT22;848;48.354;10.064;2022-10-16T04:08:51;13.80;99.90
1702;DHT22;848;48.354;10.064;2022-10-16T04:11:18;13.80;99.90
1702;DHT22;848;48.354;10.064;2022-10-16T04:13:45;13.80;99.90
1702;DHT22;848;48.354;10.064;2022-10-16T04:16:12;13.80;99.90
1702;DHT22;848;48.354;10.064;2022-10-16T04:18:39;13.90;99.90
1702;DHT22;848;48.354;10.064;2022-10-16T04:21:07;13.80;99.90
1702;DHT22;848;48.354;10.064;2022-10-16T04:23:34;13.80;99.90
1702;DHT22;848;48.354;10.064;2022-10-16T04:26:02;13.70;99.90
1702;DHT22;848;48.354;10.064;2022-10-16T04:28:29;13.70;99.90
1702;DHT22;848;48.354;10.064;2022-10-16T04:30:56;13.70;99.90
1702;DHT22;848;48.354;10.064;2022-10-16T04:33:23;13.60;99.90
1702;DHT22;848;48.354;10.064;2022-10-16T04:35:56;13.60;99.90
1702;DHT22;848;48.354;10.064;2022-10-16T04:38:23;13.60;99.90
1702;DHT22;848;48.354;10.064;2022-10-16T04:40:50;13.60;99.90
1702;DHT22;848;48.354;10.064;2022-10-16T04:43:18;13.60;99.90
1702;DHT22;848;48.354;10.064;2022-10-16T04:45:45;13.60;99.90
1702;DHT22;848;48.354;10.064;2022-10-16T04:48:12;13.50;99.90
1702;DHT22;848;48.354;10.064;2022-10-16T04:50:39;13.60;99.90
1702;DHT22;848;48.354;10.064;2022-10-16T04:53:10;13.60;99.90
1702;DHT22;848;48.354;10.064;2022-10-16T04:55:39;13.60;99.90
1702;DHT22;848;48.354;10.064;2022-10-16T04:58:07;13.60;99.90
1702;DHT22;848;48.354;10.064;2022-10-16T05:00:36;13.60;99.90
1702;DHT22;848;48.354;10.064;2022-10-16T05:03:04;13.60;99.90
1702;DHT22;848;48.354;10.064;2022-10-16T05:05:33;13.70;99.90
1702;DHT22;848;48.354;10.064;2022-10-16T05:08:00;13.70;99.90
1702;DHT22;848;48.354;10.064;2022-10-16T05:10:27;13.70;99.90
1702;DHT22;848;48.354;10.064;2022-10-16T05:12:54;13.70;99.90
1702;DHT22;848;48.354;10.064;2022-10-16T05:15:20;13.60;99.90
1702;DHT22;848;48.354;10.064;2022-10-16T05:17:53;13.60;99.90
1702;DHT22;848;48.354;10.064;2022-10-16T05:20:20;13.60;99.90
1702;DHT22;848;48.354;10.064;2022-10-16T05:22:47;13.50;99.90
1702;DHT22;848;48.354;10.064;2022-10-16T05:25:14;13.50;99.90
1702;DHT22;848;48.354;10.064;2022-10-16T05:27:41;13.50;99.90
1702;DHT22;848;48.354;10.064;2022-10-16T05:30:08;13.50;99.90
1702;DHT22;848;48.354;10.064;2022-10-16T05:32:35;13.50;99.90
1702;DHT22;848;48.354;10.064;2022-10-16T05:35:04;13.50;99.90
1702;DHT22;848;48.354;10.064;2022-10-16T05:37:31;13.50;99.90
1702;DHT22;848;48.354;10.064;2022-10-16T05:39:58;13.50;99.90
1702;DHT22;848;48.354;10.064;2022-10-16T05:42:25;13.50;99.90
1702;DHT22;848;48.354;10.064;2022-10-16T05:44:52;13.50;99.90
1702;DHT22;848;48.354;10.064;2022-10-16T05:47:19;13.50;99.90
1702;DHT22;848;48.354;10.064;2022-10-16T05:49:46;13.60;99.90
1702;DHT22;848;48.354;10.064;2022-10-16T05:52:14;13.60;99.90
1702;DHT22;848;48.354;10.064;2022-10-16T05:54:41;13.60;99.90
1702;DHT22;848;48.354;10.064;2022-10-16T05:57:09;13.60;99.90
1702;DHT22;848;48.354;10.064;2022-10-16T05:59:37;13.60;99.90
1702;DHT22;848;48.354;10.064;2022-10-16T06:02:04;13.60;99.90
1702;DHT22;848;48.354;10.064;2022-10-16T06:04:31;13.60;99.90
1702;DHT22;848;48.354;10.064;2022-10-16T06:06:58;13.50;99.90
1702;DHT22;848;48.354;10.064;2022-10-16T06:09:28;13.60;99.90
1702;DHT22;848;48.354;10.064;2022-10-16T06:11:55;13.60;99.90
1702;DHT22;848;48.354;10.064;2022-10-16T06:14:22;13.70;99.90
1702;DHT22;848;48.354;10.064;2022-10-16T06:16:48;13.70;99.90
1702;DHT22;848;48.354;10.064;2022-10-16T06:19:16;13.70;99.90
1702;DHT22;848;48.354;10.064;2022-10-16T06:21:43;13.70;99.90
1702;DHT22;848;48.354;10.064;2022-10-16T06:24:10;13.80;99.90
1702;DHT22;848;48.354;10.064;2022-10-16T06:26:38;13.90;99.90
1702;DHT22;848;48.354;10.064;2022-10-16T06:29:05;13.90;99.90
1702;DHT22;848;48.354;10.064;2022-10-16T06:31:32;14.00;99.90
1702;DHT22;848;48.354;10.064;2022-10-16T06:33:59;14.00;99.90
1702;DHT22;848;48.354;10.064;2022-10-16T06:36:27;14.00;99.90
1702;DHT22;848;48.354;10.064;2022-10-16T06:38:54;14.00;99.90
1702;DHT22;848;48.354;10.064;2022-10-16T06:41:22;14.00;99.90
1702;DHT22;848;48.354;10.064;2022-10-16T06:43:51;14.00;99.90
1702;DHT22;848;48.354;10.064;2022-10-16T06:46:20;14.00;99.90
1702;DHT22;848;48.354;10.064;2022-10-16T06:48:47;14.00;99.90
1702;DHT22;848;48.354;10.064;2022-10-16T06:51:16;14.00;99.90
1702;DHT22;848;48.354;10.064;2022-10-16T06:53:45;14.10;99.90
1702;DHT22;848;48.354;10.064;2022-10-16T06:56:14;14.20;99.90
1702;DHT22;848;48.354;10.064;2022-10-16T06:58:42;14.30;99.90
1702;DHT22;848;48.354;10.064;2022-10-16T07:01:11;14.40;99.90
1702;DHT22;848;48.354;10.064;2022-10-16T07:03:38;14.50;99.90
1702;DHT22;848;48.354;10.064;2022-10-16T07:06:07;14.50;99.90
1702;DHT22;848;48.354;10.064;2022-10-16T07:08:35;14.50;99.90
1702;DHT22;848;48.354;10.064;2022-10-16T07:11:05;14.60;99.90
1702;DHT22;848;48.354;10.064;2022-10-16T07:13:33;14.60;99.90
1702;DHT22;848;48.354;10.064;2022-10-16T07:16:04;14.60;99.90
1702;DHT22;848;48.354;10.064;2022-10-16T07:18:33;14.60;99.90
1702;DHT22;848;48.354;10.064;2022-10-16T07:21:04;14.70;99.90
1702;DHT22;848;48.354;10.064;2022-10-16T07:23:33;14.80;99.90
1702;DHT22;848;48.354;10.064;2022-10-16T07:26:00;14.80;99.90
1702;DHT22;848;48.354;10.064;2022-10-16T07:28:27;14.80;99.90
1702;DHT22;848;48.354;10.064;2022-10-16T07:30:54;14.90;99.90
1702;DHT22;848;48.354;10.064;2022-10-16T07:33:22;15.00;99.90
1702;DHT22;848;48.354;10.064;2022-10-16T07:35:52;15.10;99.90
1702;DHT22;848;48.354;10.064;2022-10-16T07:38:19;15.20;99.90
1702;DHT22;848;48.354;10.064;2022-10-16T07:40:47;15.30;99.90
1702;DHT22;848;48.354;10.064;2022-10-16T07:43:15;15.40;99.90
1702;DHT22;848;48.354;10.064;2022-10-16T07:45:49;15.40;99.90
1702;DHT22;848;48.354;10.064;2022-10-16T07:48:16;15.40;99.90
1702;DHT22;848;48.354;10.064;2022-10-16T07:50:44;15.50;99.90
1702;DHT22;848;48.354;10.064;2022-10-16T07:53:12;15.50;99.90
1702;DHT22;848;48.354;10.064;2022-10-16T07:55:40;15.50;99.90
1702;DHT22;848;48.354;10.064;2022-10-16T07:58:07;15.40;99.90
1702;DHT22;848;48.354;10.064;2022-10-16T08:00:35;15.80;99.90
1702;DHT22;848;48.354;10.064;2022-10-16T08:03:02;15.40;99.90
1702;DHT22;848;48.354;10.064;2022-10-16T08:05:31;15.50;99.90
1702;DHT22;848;48.354;10.064;2022-10-16T08:07:58;15.50;99.90
1702;DHT22;848;48.354;10.064;2022-10-16T08:10:27;15.40;99.90
1702;DHT22;848;48.354;10.064;2022-10-16T08:12:55;15.50;99.90
1702;DHT22;848;48.354;10.064;2022-10-16T08:15:22;15.50;99.90
1702;DHT22;848;48.354;10.064;2022-10-16T08:17:59;15.50;99.90
1702;DHT22;848;48.354;10.064;2022-10-16T08:20:26;15.50;99.90
1702;DHT22;848;48.354;10.064;2022-10-16T08:22:53;15.50;99.90
1702;DHT22;848;48.354;10.064;2022-10-16T08:25:21;15.50;99.90
1702;DHT22;848;48.354;10.064;2022-10-16T08:27:50;15.60;99.90
1702;DHT22;848;48.354;10.064;2022-10-16T08:30:18;15.60;99.90
1702;DHT22;848;48.354;10.064;2022-10-16T08:32:45;15.60;99.90
1702;DHT22;848;48.354;10.064;2022-10-16T08:35:13;15.60;99.90
1702;DHT22;848;48.354;10.064;2022-10-16T08:37:41;15.60;99.90
1702;DHT22;848;48.354;10.064;2022-10-16T08:40:17;15.70;99.90
1702;DHT22;848;48.354;10.064;2022-10-16T08:43:04;15.70;99.90
1702;DHT22;848;48.354;10.064;2022-10-16T08:45:52;15.80;99.90
1702;DHT22;848;48.354;10.064;2022-10-16T08:48:25;15.80;99.90
1702;DHT22;848;48.354;10.064;2022-10-16T08:50:53;15.80;99.90
1702;DHT22;848;48.354;10.064;2022-10-16T08:53:24;15.80;99.90
1702;DHT22;848;48.354;10.064;2022-10-16T08:55:52;15.80;99.90
1702;DHT22;848;48.354;10.064;2022-10-16T08:58:22;15.90;99.90
1702;DHT22;848;48.354;10.064;2022-10-16T09:00:53;15.80;99.90
1702;DHT22;848;48.354;10.064;2022-10-16T09:03:40;15.80;99.90
1702;DHT22;848;48.354;10.064;2022-10-16T09:06:25;16.00;99.90
1702;DHT22;848;48.354;10.064;2022-10-16T09:09:08;16.00;99.90
1702;DHT22;848;48.354;10.064;2022-10-16T09:11:46;16.10;99.90
1702;DHT22;848;48.354;10.064;2022-10-16T09:14:40;16.10;99.90
1702;DHT22;848;48.354;10.064;2022-10-16T09:17:24;16.20;99.90
1702;DHT22;848;48.354;10.064;2022-10-16T09:20:00;16.20;99.90
1702;DHT22;848;48.354;10.064;2022-10-16T09:22:31;16.30;99.90
1702;DHT22;848;48.354;10.064;2022-10-16T09:25:00;16.40;99.90
1702;DHT22;848;48.354;10.064;2022-10-16T09:27:28;16.40;99.90
1702;DHT22;848;48.354;10.064;2022-10-16T09:29:57;16.40;99.90
1702;DHT22;848;48.354;10.064;2022-10-16T09:32:24;16.40;99.90
1702;DHT22;848;48.354;10.064;2022-10-16T09:34:54;16.50;99.90
1702;DHT22;848;48.354;10.064;2022-10-16T09:37:24;16.50;99.90
1702;DHT22;848;48.354;10.064;2022-10-16T09:39:52;16.50;99.90
1702;DHT22;848;48.354;10.064;2022-10-16T09:42:21;16.60;99.90
1702;DHT22;848;48.354;10.064;2022-10-16T09:44:50;16.70;99.90
1702;DHT22;848;48.354;10.064;2022-10-16T09:47:23;16.70;99.90
1702;DHT22;848;48.354;10.064;2022-10-16T09:49:51;16.80;99.90
1702;DHT22;848;48.354;10.064;2022-10-16T09:52:19;16.80;99.90
1702;DHT22;848;48.354;10.064;2022-10-16T09:54:50;16.90;99.90
1702;DHT22;848;48.354;10.064;2022-10-16T09:57:17;16.90;99.90
1702;DHT22;848;48.354;10.064;2022-10-16T09:59:48;17.00;99.90
1702;DHT22;848;48.354;10.064;2022-10-16T10:02:16;17.00;99.90
1702;DHT22;848;48.354;10.064;2022-10-16T10:04:49;17.10;99.90
1702;DHT22;848;48.354;10.064;2022-10-16T10:07:19;17.20;99.90
1702;DHT22;848;48.354;10.064;2022-10-16T10:09:47;17.30;99.90
1702;DHT22;848;48.354;10.064;2022-10-16T10:12:19;17.50;99.90
1702;DHT22;848;48.354;10.064;2022-10-16T10:14:47;17.50;99.90
1702;DHT22;848;48.354;10.064;2022-10-16T10:17:18;17.50;99.90
1702;DHT22;848;48.354;10.064;2022-10-16T10:19:49;17.50;99.90
1702;DHT22;848;48.354;10.064;2022-10-16T10:22:29;17.40;99.90
1702;DHT22;848;48.354;10.064;2022-10-16T10:25:12;17.50;99.90
1702;DHT22;848;48.354;10.064;2022-10-16T10:27:51;17.50;99.90
1702;DHT22;848;48.354;10.064;2022-10-16T10:30:22;17.60;99.90
1702;DHT22;848;48.354;10.064;2022-10-16T10:33:09;17.70;99.90
1702;DHT22;848;48.354;10.064;2022-10-16T10:35:45;17.70;99.90
1702;DHT22;848;48.354;10.064;2022-10-16T10:38:24;17.80;99.90
1702;DHT22;848;48.354;10.064;2022-10-16T10:40:57;17.90;99.90
1702;DHT22;848;48.354;10.064;2022-10-16T10:43:39;18.00;99.90
1702;DHT22;848;48.354;10.064;2022-10-16T10:46:14;17.90;99.90
1702;DHT22;848;48.354;10.064;2022-10-16T10:48:54;18.00;99.90
1702;DHT22;848;48.354;10.064;2022-10-16T10:51:30;18.00;99.90
1702;DHT22;848;48.354;10.064;2022-10-16T10:54:07;18.10;99.90
1702;DHT22;848;48.354;10.064;2022-10-16T10:56:44;18.10;99.90
1702;DHT22;848;48.354;10.064;2022-10-16T10:59:37;18.10;99.90
1702;DHT22;848;48.354;10.064;2022-10-16T11:02:13;18.10;99.90
1702;DHT22;848;48.354;10.064;2022-10-16T11:04:54;18.20;99.90
1702;DHT22;848;48.354;10.064;2022-10-16T11:07:27;18.20;99.90
1702;DHT22;848;48.354;10.064;2022-10-16T11:09:59;18.20;99.90
1702;DHT22;848;48.354;10.064;2022-10-16T11:12:31;18.20;99.90
1702;DHT22;848;48.354;10.064;2022-10-16T11:15:04;18.20;99.90
1702;DHT22;848;48.354;10.064;2022-10-16T11:17:39;18.20;99.90
1702;DHT22;848;48.354;10.064;2022-10-16T11:20:14;18.30;99.90
1702;DHT22;848;48.354;10.064;2022-10-16T11:22:47;18.40;99.90
1702;DHT22;848;48.354;10.064;2022-10-16T11:25:19;18.50;99.90
1702;DHT22;848;48.354;10.064;2022-10-16T11:27:50;18.60;99.90
1702;DHT22;848;48.354;10.064;2022-10-16T11:30:21;18.70;99.90
1702;DHT22;848;48.354;10.064;2022-10-16T11:33:03;18.80;99.90
1702;DHT22;848;48.354;10.064;2022-10-16T11:35:39;18.90;99.90
1702;DHT22;848;48.354;10.064;2022-10-16T11:38:15;18.90;99.90
1702;DHT22;848;48.354;10.064;2022-10-16T11:40:47;18.90;99.90
1702;DHT22;848;48.354;10.064;2022-10-16T11:43:21;19.00;99.90
1702;DHT22;848;48.354;10.064;2022-10-16T11:45:54;19.10;99.90
1702;DHT22;848;48.354;10.064;2022-10-16T11:48:26;19.10;99.90
1702;DHT22;848;48.354;10.064;2022-10-16T11:50:56;19.10;99.90
1702;DHT22;848;48.354;10.064;2022-10-16T11:53:38;19.00;99.90
1702;DHT22;848;48.354;10.064;2022-10-16T11:56:12;19.00;99.90
1702;DHT22;848;48.354;10.064;2022-10-16T11:58:47;18.90;99.90
1702;DHT22;848;48.354;10.064;2022-10-16T12:01:20;19.00;99.90
1702;DHT22;848;48.354;10.064;2022-10-16T12:06:40;19.20;99.90
1702;DHT22;848;48.354;10.064;2022-10-16T12:09:14;19.20;99.90
1702;DHT22;848;48.354;10.064;2022-10-16T12:11:41;19.20;99.90
1702;DHT22;848;48.354;10.064;2022-10-16T12:14:33;19.20;99.90
1702;DHT22;848;48.354;10.064;2022-10-16T12:17:04;19.10;99.90
1702;DHT22;848;48.354;10.064;2022-10-16T12:19:58;19.00;99.90
1702;DHT22;848;48.354;10.064;2022-10-16T12:22:27;18.90;99.90
1702;DHT22;848;48.354;10.064;2022-10-16T12:24:56;18.90;99.90
1702;DHT22;848;48.354;10.064;2022-10-16T12:27:27;18.80;99.90
1702;DHT22;848;48.354;10.064;2022-10-16T12:29:56;18.90;99.90
1702;DHT22;848;48.354;10.064;2022-10-16T12:32:28;18.80;99.90
1702;DHT22;848;48.354;10.064;2022-10-16T12:34:56;18.80;99.90
1702;DHT22;848;48.354;10.064;2022-10-16T12:37:25;18.80;99.90
1702;DHT22;848;48.354;10.064;2022-10-16T12:39:55;18.80;99.90
1702;DHT22;848;48.354;10.064;2022-10-16T12:42:32;18.80;99.90
1702;DHT22;848;48.354;10.064;2022-10-16T12:45:00;18.90;99.90
1702;DHT22;848;48.354;10.064;2022-10-16T12:47:38;19.00;99.90
1702;DHT22;848;48.354;10.064;2022-10-16T12:50:27;19.00;99.90
1702;DHT22;848;48.354;10.064;2022-10-16T12:52:54;19.00;99.90
1702;DHT22;848;48.354;10.064;2022-10-16T12:55:23;18.90;99.90
1702;DHT22;848;48.354;10.064;2022-10-16T12:58:12;19.00;99.90
1702;DHT22;848;48.354;10.064;2022-10-16T13:00:44;19.20;99.90
1702;DHT22;848;48.354;10.064;2022-10-16T13:03:40;19.40;99.90
1702;DHT22;848;48.354;10.064;2022-10-16T13:06:19;19.40;99.90
1702;DHT22;848;48.354;10.064;2022-10-16T13:09:07;19.40;99.90
1702;DHT22;848;48.354;10.064;2022-10-16T13:11:53;19.50;99.90
1702;DHT22;848;48.354;10.064;2022-10-16T13:14:38;19.60;99.90
1702;DHT22;848;48.354;10.064;2022-10-16T13:17:13;19.50;99.90
1702;DHT22;848;48.354;10.064;2022-10-16T13:19:47;19.40;99.90
1702;DHT22;848;48.354;10.064;2022-10-16T13:22:23;19.30;99.90
1702;DHT22;848;48.354;10.064;2022-10-16T13:25:02;19.30;99.90
1702;DHT22;848;48.354;10.064;2022-10-16T13:27:41;19.30;99.90
1702;DHT22;848;48.354;10.064;2022-10-16T13:30:13;19.40;99.90
1702;DHT22;848;48.354;10.064;2022-10-16T13:32:45;19.40;99.90
1702;DHT22;848;48.354;10.064;2022-10-16T13:35:21;19.40;99.90
1702;DHT22;848;48.354;10.064;2022-10-16T13:37:48;19.50;99.90
1702;DHT22;848;48.354;10.064;2022-10-16T13:40:20;19.50;99.90
1702;DHT22;848;48.354;10.064;2022-10-16T13:42:48;19.50;99.90
1702;DHT22;848;48.354;10.064;2022-10-16T13:45:20;19.70;99.90
1702;DHT22;848;48.354;10.064;2022-10-16T13:47:47;19.70;99.90
1702;DHT22;848;48.354;10.064;2022-10-16T13:50:16;19.60;99.90
1702;DHT22;848;48.354;10.064;2022-10-16T13:52:43;19.60;99.90
1702;DHT22;848;48.354;10.064;2022-10-16T13:55:11;19.60;99.90
1702;DHT22;848;48.354;10.064;2022-10-16T13:57:38;19.50;99.90
1702;DHT22;848;48.354;10.064;2022-10-16T14:00:20;19.40;99.90
1702;DHT22;848;48.354;10.064;2022-10-16T14:02:52;19.30;99.90
1702;DHT22;848;48.354;10.064;2022-10-16T14:05:20;19.30;99.90
1702;DHT22;848;48.354;10.064;2022-10-16T14:07:49;19.20;99.90
1702;DHT22;848;48.354;10.064;2022-10-16T14:10:22;19.30;99.90
1702;DHT22;848;48.354;10.064;2022-10-16T14:12:55;19.30;99.90
1702;DHT22;848;48.354;10.064;2022-10-16T14:15:24;19.30;99.90
1702;DHT22;848;48.354;10.064;2022-10-16T14:17:52;19.30;99.90
1702;DHT22;848;48.354;10.064;2022-10-16T14:20:22;19.30;99.90
1702;DHT22;848;48.354;10.064;2022-10-16T14:22:58;19.20;99.90
1702;DHT22;848;48.354;10.064;2022-10-16T14:25:28;19.20;99.90
1702;DHT22;848;48.354;10.064;2022-10-16T14:28:04;19.20;99.90
1702;DHT22;848;48.354;10.064;2022-10-16T14:30:34;19.20;99.90
1702;DHT22;848;48.354;10.064;2022-10-16T14:33:03;19.30;99.90
1702;DHT22;848;48.354;10.064;2022-10-16T14:35:32;19.30;99.90
1702;DHT22;848;48.354;10.064;2022-10-16T14:38:00;19.40;99.90
1702;DHT22;848;48.354;10.064;2022-10-16T14:40:29;19.40;99.90
1702;DHT22;848;48.354;10.064;2022-10-16T14:42:57;19.40;99.90
1702;DHT22;848;48.354;10.064;2022-10-16T14:45:27;19.40;99.90
1702;DHT22;848;48.354;10.064;2022-10-16T14:47:57;19.40;99.90
1702;DHT22;848;48.354;10.064;2022-10-16T14:50:25;19.40;99.90
1702;DHT22;848;48.354;10.064;2022-10-16T14:52:53;19.30;99.90
1702;DHT22;848;48.354;10.064;2022-10-16T14:55:20;19.20;99.90
1702;DHT22;848;48.354;10.064;2022-10-16T14:57:47;19.10;99.90
1702;DHT22;848;48.354;10.064;2022-10-16T15:00:17;19.00;99.90
1702;DHT22;848;48.354;10.064;2022-10-16T15:02:45;18.90;99.90
1702;DHT22;848;48.354;10.064;2022-10-16T15:05:16;18.80;99.90
1702;DHT22;848;48.354;10.064;2022-10-16T15:07:44;18.80;99.90
1702;DHT22;848;48.354;10.064;2022-10-16T15:10:12;18.80;99.90
1702;DHT22;848;48.354;10.064;2022-10-16T15:12:39;18.80;99.90
1702;DHT22;848;48.354;10.064;2022-10-16T15:15:26;18.80;99.90
1702;DHT22;848;48.354;10.064;2022-10-16T15:17:56;18.80;99.90
1702;DHT22;848;48.354;10.064;2022-10-16T15:20:28;18.90;99.90
1702;DHT22;848;48.354;10.064;2022-10-16T15:22:55;18.90;99.90
1702;DHT22;848;48.354;10.064;2022-10-16T15:25:32;18.90;99.90
1702;DHT22;848;48.354;10.064;2022-10-16T15:28:01;18.90;99.90
1702;DHT22;848;48.354;10.064;2022-10-16T15:30:28;19.00;99.90
1702;DHT22;848;48.354;10.064;2022-10-16T15:32:55;19.00;99.90
1702;DHT22;848;48.354;10.064;2022-10-16T15:35:22;19.00;99.90
1702;DHT22;848;48.354;10.064;2022-10-16T15:37:50;19.00;99.90
1702;DHT22;848;48.354;10.064;2022-10-16T15:40:18;18.90;99.90
1702;DHT22;848;48.354;10.064;2022-10-16T15:42:46;18.90;99.90
1702;DHT22;848;48.354;10.064;2022-10-16T15:45:13;18.90;99.90
1702;DHT22;848;48.354;10.064;2022-10-16T15:47:41;18.80;99.90
1702;DHT22;848;48.354;10.064;2022-10-16T15:50:10;18.80;99.90
1702;DHT22;848;48.354;10.064;2022-10-16T15:52:37;18.70;99.90
1702;DHT22;848;48.354;10.064;2022-10-16T15:55:07;18.70;99.90
1702;DHT22;848;48.354;10.064;2022-10-16T15:57:35;18.70;99.90
1702;DHT22;848;48.354;10.064;2022-10-16T16:00:05;18.60;99.90
1702;DHT22;848;48.354;10.064;2022-10-16T16:02:33;18.50;99.90
1702;DHT22;848;48.354;10.064;2022-10-16T16:05:00;18.40;99.90
1702;DHT22;848;48.354;10.064;2022-10-16T16:07:27;18.30;99.90
1702;DHT22;848;48.354;10.064;2022-10-16T16:09:54;18.20;99.90
1702;DHT22;848;48.354;10.064;2022-10-16T16:12:22;18.10;99.90
1702;DHT22;848;48.354;10.064;2022-10-16T16:14:49;18.00;99.90
1702;DHT22;848;48.354;10.064;2022-10-16T16:17:16;18.00;99.90
1702;DHT22;848;48.354;10.064;2022-10-16T16:19:43;17.90;99.90
1702;DHT22;848;48.354;10.064;2022-10-16T16:22:12;17.90;99.90
1702;DHT22;848;48.354;10.064;2022-10-16T16:24:38;17.80;99.90
1702;DHT22;848;48.354;10.064;2022-10-16T16:27:05;17.70;99.90